createdAt,value
2023-11-12T00:00:50.165Z,5.73
2023-11-12T00:01:51.831Z,5.65
2023-11-12T00:02:53.560Z,5.64
2023-11-12T00:03:55.254Z,5.56
2023-11-12T00:04:56.918Z,5.56
2023-11-12T00:05:58.519Z,5.59
2023-11-12T00:07:00.097Z,5.55
2023-11-12T00:08:01.768Z,5.51
2023-11-12T00:09:03.429Z,5.51
2023-11-12T00:10:05.397Z,5.54
2023-11-12T00:11:07.080Z,5.52
2023-11-12T00:12:09.207Z,5.47
2023-11-12T00:13:11.267Z,5.48
2023-11-12T00:14:12.931Z,5.48
2023-11-12T00:15:14.940Z,5.49
2023-11-12T00:16:16.640Z,5.53
2023-11-12T00:17:18.313Z,5.52
2023-11-12T00:18:19.908Z,5.53
2023-11-12T00:19:21.501Z,5.55
2023-11-12T00:20:23.158Z,5.62
2023-11-12T00:21:25.333Z,5.53
2023-11-12T00:22:26.904Z,5.52
2023-11-12T00:23:28.682Z,5.52
2023-11-12T00:24:30.315Z,5.41
2023-11-12T00:25:31.896Z,5.34
2023-11-12T00:26:33.496Z,5.34
2023-11-12T00:27:35.063Z,5.38
2023-11-12T00:28:36.637Z,5.32
2023-11-12T00:29:38.217Z,5.27
2023-11-12T00:30:39.790Z,5.33
2023-11-12T00:31:41.497Z,5.31
2023-11-12T00:32:43.240Z,5.27
2023-11-12T00:33:45.962Z,5.25
2023-11-12T00:34:48.765Z,5.30
2023-11-12T00:35:50.385Z,5.26
2023-11-12T00:36:52.007Z,5.32
2023-11-12T00:37:53.625Z,5.27
2023-11-12T00:38:55.199Z,5.29
2023-11-12T00:39:56.787Z,5.33
2023-11-12T00:40:58.445Z,5.23
2023-11-12T00:42:00.054Z,5.23
2023-11-12T00:43:01.629Z,5.26
2023-11-12T00:44:03.252Z,5.32
2023-11-12T00:45:05.302Z,5.29
2023-11-12T00:46:06.916Z,5.27
2023-11-12T00:47:08.665Z,5.38
2023-11-12T00:48:10.351Z,5.44
2023-11-12T00:49:11.966Z,5.38
2023-11-12T00:50:13.601Z,5.31
2023-11-12T00:51:15.267Z,5.32
2023-11-12T00:52:17.016Z,5.26
2023-11-12T00:53:18.880Z,5.26
2023-11-12T00:54:20.505Z,5.32
2023-11-12T00:55:22.121Z,5.20
2023-11-12T00:56:23.873Z,5.28
2023-11-12T00:57:26.137Z,5.35
2023-11-12T00:58:28.512Z,5.37
2023-11-12T00:59:30.074Z,5.33
2023-11-12T01:00:31.692Z,5.26
2023-11-12T01:01:33.268Z,5.16
2023-11-12T01:02:34.951Z,5.19
2023-11-12T01:03:36.672Z,5.24
2023-11-12T01:04:38.278Z,5.27
2023-11-12T01:05:39.868Z,5.30
2023-11-12T01:06:41.479Z,5.33
2023-11-12T01:07:43.107Z,5.15
2023-11-12T01:08:44.726Z,5.17
2023-11-12T01:09:46.330Z,5.23
2023-11-12T01:10:48.243Z,5.19
2023-11-12T01:11:49.877Z,5.23
2023-11-12T01:12:51.530Z,5.17
2023-11-12T01:13:53.184Z,5.25
2023-11-12T01:14:54.818Z,5.24
2023-11-12T01:15:56.463Z,5.19
2023-11-12T01:16:58.545Z,5.16
2023-11-12T01:18:00.228Z,5.25
2023-11-12T01:19:02.394Z,5.26
2023-11-12T01:20:04.259Z,5.23
2023-11-12T01:21:05.965Z,5.22
2023-11-12T01:22:08.056Z,5.24
2023-11-12T01:23:09.849Z,5.26
2023-11-12T01:24:11.635Z,5.27
2023-11-12T01:25:13.327Z,5.27
2023-11-12T01:26:14.928Z,5.28
2023-11-12T01:27:17.743Z,5.19
2023-11-12T01:28:19.389Z,5.23
2023-11-12T01:29:21.128Z,5.26
2023-11-12T01:30:22.720Z,5.23
2023-11-12T01:31:24.391Z,5.22
2023-11-12T01:32:26.048Z,5.11
2023-11-12T01:33:27.845Z,5.08
2023-11-12T01:34:29.430Z,5.05
2023-11-12T01:35:31.136Z,5.02
2023-11-12T01:36:34.585Z,5.07
2023-11-12T01:37:36.214Z,5.07
2023-11-12T01:38:37.883Z,5.10
2023-11-12T01:39:39.465Z,5.12
2023-11-12T01:40:42.141Z,5.23
2023-11-12T01:41:43.708Z,5.24
2023-11-12T01:42:45.613Z,5.28
2023-11-12T01:43:47.273Z,5.24
2023-11-12T01:44:48.874Z,5.24
2023-11-12T01:45:51.017Z,5.23
2023-11-12T01:46:52.956Z,5.21
2023-11-12T01:47:54.821Z,5.21
2023-11-12T01:48:57.593Z,5.18
2023-11-12T01:49:59.312Z,5.20
2023-11-12T01:51:01.488Z,5.22
2023-11-12T01:52:09.311Z,5.19
2023-11-12T01:53:15.641Z,5.20
2023-11-12T01:54:17.465Z,5.15
2023-11-12T01:55:21.991Z,5.19
2023-11-12T01:56:23.742Z,5.20
2023-11-12T01:57:25.859Z,5.25
2023-11-12T01:58:29.174Z,5.25
2023-11-12T01:59:31.166Z,5.27
2023-11-12T02:00:33.034Z,5.21
2023-11-12T02:01:34.652Z,5.19
2023-11-12T02:02:36.886Z,5.16
2023-11-12T02:03:42.312Z,5.21
2023-11-12T02:04:43.955Z,5.17
2023-11-12T02:05:45.608Z,5.13
2023-11-12T02:06:48.963Z,5.11
2023-11-12T02:07:50.613Z,5.13
2023-11-12T02:08:52.252Z,5.13
2023-11-12T02:09:56.631Z,5.00
2023-11-12T02:10:58.560Z,4.98
2023-11-12T02:12:00.218Z,4.95
2023-11-12T02:13:02.935Z,4.96
2023-11-12T02:14:06.526Z,4.93
2023-11-12T02:15:08.372Z,4.97
2023-11-12T02:16:10.819Z,4.93
2023-11-12T02:17:12.414Z,5.00
2023-11-12T02:18:14.673Z,4.91
2023-11-12T02:19:26.621Z,4.89
2023-11-12T02:20:28.249Z,4.96
2023-11-12T02:21:29.934Z,4.89
2023-11-12T02:22:32.315Z,4.92
2023-11-12T02:23:37.978Z,4.95
2023-11-12T02:24:39.611Z,4.95
2023-11-12T02:25:41.261Z,5.01
2023-11-12T02:26:42.867Z,5.04
2023-11-12T02:27:44.472Z,5.10
2023-11-12T02:28:46.097Z,5.15
2023-11-12T02:29:48.909Z,5.17
2023-11-12T02:30:54.866Z,5.09
2023-11-12T02:31:56.489Z,5.09
2023-11-12T02:32:58.094Z,5.07
2023-11-12T02:33:59.718Z,5.00
2023-11-12T02:35:02.305Z,5.04
2023-11-12T02:36:04.854Z,5.04
2023-11-12T02:37:06.447Z,5.07
2023-11-12T02:38:08.039Z,5.12
2023-11-12T02:39:09.680Z,5.13
2023-11-12T02:40:12.005Z,5.17
2023-11-12T02:41:13.560Z,5.11
2023-11-12T02:42:15.181Z,5.13
2023-11-12T02:43:16.849Z,5.11
2023-11-12T02:44:18.429Z,5.15
2023-11-12T02:45:20.066Z,5.17
2023-11-12T02:46:25.117Z,5.17
2023-11-12T02:47:26.759Z,5.21
2023-11-12T02:49:00.192Z,5.25
2023-11-12T02:50:38.776Z,5.26
2023-11-12T02:51:40.409Z,5.31
2023-11-12T02:52:42.039Z,5.30
2023-11-12T02:53:43.632Z,5.25
2023-11-12T02:54:45.216Z,5.32
2023-11-12T02:55:47.020Z,5.40
2023-11-12T02:56:48.641Z,5.43
2023-11-12T02:57:50.215Z,5.49
2023-11-12T02:58:51.771Z,5.50
2023-11-12T02:59:54.295Z,5.48
2023-11-12T03:00:56.787Z,5.53
2023-11-12T03:01:58.658Z,5.54
2023-11-12T03:03:02.813Z,5.49
2023-11-12T03:04:04.834Z,5.56
2023-11-12T03:05:07.831Z,5.60
2023-11-12T03:06:09.500Z,5.60
2023-11-12T03:07:11.212Z,5.64
2023-11-12T03:08:12.789Z,5.65
2023-11-12T03:09:14.806Z,5.57
2023-11-12T03:10:16.703Z,5.59
2023-11-12T03:11:18.495Z,5.54
2023-11-12T03:12:20.285Z,5.52
2023-11-12T03:13:21.944Z,5.52
2023-11-12T03:14:23.935Z,5.55
2023-11-12T03:15:25.757Z,5.58
2023-11-12T03:16:27.417Z,5.63
2023-11-12T03:17:29.891Z,5.63
2023-11-12T03:18:31.573Z,5.62
2023-11-12T03:19:33.186Z,5.61
2023-11-12T03:20:34.795Z,5.57
2023-11-12T03:21:36.409Z,5.59
2023-11-12T03:22:38.426Z,5.61
2023-11-12T03:23:40.952Z,5.63
2023-11-12T03:24:42.681Z,5.69
2023-11-12T03:25:44.278Z,5.71
2023-11-12T03:26:45.972Z,5.73
2023-11-12T03:27:47.642Z,5.77
2023-11-12T03:28:49.244Z,5.75
2023-11-12T03:29:50.832Z,5.79
2023-11-12T03:30:53.412Z,5.76
2023-11-12T03:31:55.345Z,5.81
2023-11-12T03:32:56.970Z,5.81
2023-11-12T03:33:58.631Z,5.84
2023-11-12T03:35:00.308Z,5.83
2023-11-12T03:36:02.475Z,5.72
2023-11-12T03:37:04.621Z,5.75
2023-11-12T03:38:06.212Z,5.78
2023-11-12T03:39:09.462Z,5.79
2023-11-12T03:40:11.809Z,5.80
2023-11-12T03:41:14.154Z,5.82
2023-11-12T03:42:16.513Z,5.83
2023-11-12T03:43:18.083Z,5.88
2023-11-12T03:44:21.061Z,5.90
2023-11-12T03:45:22.702Z,5.97
2023-11-12T03:46:24.357Z,5.98
2023-11-12T03:47:26.048Z,5.99
2023-11-12T03:48:28.297Z,6.02
2023-11-12T03:49:29.888Z,6.00
2023-11-12T03:50:31.462Z,6.03
2023-11-12T03:51:33.182Z,6.03
2023-11-12T03:52:34.905Z,5.99
2023-11-12T03:53:36.485Z,6.01
2023-11-12T03:54:38.229Z,6.04
2023-11-12T03:55:39.833Z,6.00
2023-11-12T03:56:41.486Z,6.05
2023-11-12T03:57:43.123Z,6.07
2023-11-12T03:58:45.024Z,6.13
2023-11-12T03:59:46.605Z,6.18
2023-11-12T04:00:48.304Z,6.19
2023-11-12T04:01:49.959Z,6.21
2023-11-12T04:02:51.736Z,6.20
2023-11-12T04:03:53.921Z,6.21
2023-11-12T04:04:55.721Z,6.22
2023-11-12T04:05:57.428Z,6.21
2023-11-12T04:06:59.021Z,6.21
2023-11-12T04:08:01.142Z,6.24
2023-11-12T04:09:02.804Z,6.22
2023-11-12T04:10:04.649Z,6.22
2023-11-12T04:11:06.341Z,6.22
2023-11-12T04:12:08.281Z,6.22
2023-11-12T04:13:09.897Z,6.22
2023-11-12T04:14:11.476Z,6.25
2023-11-12T04:15:13.117Z,6.26
2023-11-12T04:16:14.759Z,6.27
2023-11-12T04:17:16.472Z,6.29
2023-11-12T04:18:18.113Z,6.27
2023-11-12T04:19:19.766Z,6.23
2023-11-12T04:20:21.476Z,6.23
2023-11-12T04:21:23.177Z,6.25
2023-11-12T04:22:26.166Z,6.25
2023-11-12T04:23:27.744Z,6.23
2023-11-12T04:24:29.339Z,6.19
2023-11-12T04:25:31.004Z,6.17
2023-11-12T04:26:32.589Z,6.16
2023-11-12T04:27:34.327Z,6.10
2023-11-12T04:28:36.196Z,6.13
2023-11-12T04:29:37.777Z,6.09
2023-11-12T04:30:39.437Z,6.15
2023-11-12T04:31:41.186Z,6.16
2023-11-12T04:32:45.694Z,6.22
2023-11-12T04:33:47.674Z,6.20
2023-11-12T04:34:49.272Z,6.17
2023-11-12T04:35:51.321Z,6.12
2023-11-12T04:36:54.866Z,6.17
2023-11-12T04:37:56.447Z,6.15
2023-11-12T04:38:58.058Z,6.14
2023-11-12T04:39:59.617Z,6.19
2023-11-12T04:41:01.280Z,6.22
2023-11-12T04:42:02.892Z,6.22
2023-11-12T04:43:04.459Z,6.22
2023-11-12T04:44:06.394Z,6.24
2023-11-12T04:45:08.280Z,6.27
2023-11-12T04:46:09.896Z,6.25
2023-11-12T04:47:11.513Z,6.25
2023-11-12T04:48:13.198Z,6.27
2023-11-12T04:49:14.844Z,6.24
2023-11-12T04:50:16.522Z,6.25
2023-11-12T04:51:18.220Z,6.28
2023-11-12T04:52:19.887Z,6.29
2023-11-12T04:53:21.472Z,6.32
2023-11-12T04:54:23.053Z,6.31
2023-11-12T04:55:24.655Z,6.31
2023-11-12T04:56:26.235Z,6.30
2023-11-12T04:57:27.848Z,6.32
2023-11-12T04:58:29.460Z,6.32
2023-11-12T04:59:31.125Z,6.34
2023-11-12T05:00:32.943Z,6.38
2023-11-12T05:01:34.590Z,6.34
2023-11-12T05:02:36.198Z,6.35
2023-11-12T05:03:37.836Z,6.34
2023-11-12T05:04:42.676Z,6.35
2023-11-12T05:05:44.237Z,6.32
2023-11-12T05:06:45.832Z,6.28
2023-11-12T05:07:47.474Z,6.27
2023-11-12T05:08:49.143Z,6.32
2023-11-12T05:09:50.759Z,6.30
2023-11-12T05:10:52.327Z,6.28
2023-11-12T05:11:53.902Z,6.25
2023-11-12T05:12:55.563Z,6.27
2023-11-12T05:13:57.193Z,6.26
2023-11-12T05:14:58.772Z,6.28
2023-11-12T05:16:00.416Z,6.27
2023-11-12T05:17:01.970Z,6.26
2023-11-12T05:18:03.726Z,6.26
2023-11-12T05:19:05.398Z,6.25
2023-11-12T05:20:07.546Z,6.29
2023-11-12T05:21:09.182Z,6.28
2023-11-12T05:22:10.757Z,6.29
2023-11-12T05:23:12.409Z,6.30
2023-11-12T05:24:14.403Z,6.28
2023-11-12T05:25:16.037Z,6.26
2023-11-12T05:26:17.592Z,6.26
2023-11-12T05:27:19.892Z,6.26
2023-11-12T05:28:21.495Z,6.22
2023-11-12T05:29:23.089Z,6.25
2023-11-12T05:30:25.137Z,6.27
2023-11-12T05:31:27.019Z,6.21
2023-11-12T05:32:28.655Z,6.19
2023-11-12T05:33:30.268Z,6.19
2023-11-12T05:34:31.892Z,6.21
2023-11-12T05:35:33.501Z,6.18
2023-11-12T05:36:35.100Z,6.14
2023-11-12T05:37:36.708Z,6.16
2023-11-12T05:38:39.544Z,6.14
2023-11-12T05:39:41.151Z,6.14
2023-11-12T05:40:43.349Z,6.16
2023-11-12T05:41:44.935Z,6.15
2023-11-12T05:42:46.566Z,6.16
2023-11-12T05:43:48.383Z,6.19
2023-11-12T05:44:49.969Z,6.20
2023-11-12T05:45:51.610Z,6.26
2023-11-12T05:46:53.163Z,6.27
2023-11-12T05:47:54.836Z,6.21
2023-11-12T05:48:56.479Z,6.19
2023-11-12T05:49:58.072Z,6.17
2023-11-12T05:50:59.646Z,6.18
2023-11-12T05:52:01.244Z,6.16
2023-11-12T05:53:02.871Z,6.16
2023-11-12T05:54:04.864Z,6.18
2023-11-12T05:55:06.691Z,6.18
2023-11-12T05:56:08.397Z,6.17
2023-11-12T05:57:09.991Z,6.15
2023-11-12T05:58:11.664Z,6.17
2023-11-12T05:59:13.274Z,6.16
2023-11-12T06:00:15.286Z,6.17
2023-11-12T06:01:16.918Z,6.19
2023-11-12T06:02:18.478Z,6.20
2023-11-12T06:03:20.168Z,6.19
2023-11-12T06:04:21.911Z,6.21
2023-11-12T06:05:23.573Z,6.21
2023-11-12T06:06:25.213Z,6.22
2023-11-12T06:07:26.866Z,6.22
2023-11-12T06:08:28.431Z,6.20
2023-11-12T06:09:30.047Z,6.18
2023-11-12T06:10:31.704Z,6.18
2023-11-12T06:11:33.252Z,6.17
2023-11-12T06:12:34.880Z,6.17
2023-11-12T06:13:36.467Z,6.15
2023-11-12T06:14:38.043Z,6.06
2023-11-12T06:15:41.669Z,6.00
2023-11-12T06:16:43.329Z,6.03
2023-11-12T06:17:44.929Z,5.99
2023-11-12T06:18:46.543Z,6.00
2023-11-12T06:19:48.308Z,6.02
2023-11-12T06:20:49.981Z,6.06
2023-11-12T06:21:51.637Z,6.08
2023-11-12T06:22:53.211Z,6.08
2023-11-12T06:23:54.822Z,6.10
2023-11-12T06:24:56.385Z,6.14
2023-11-12T06:25:57.945Z,6.14
2023-11-12T06:26:59.523Z,6.10
2023-11-12T06:28:01.197Z,6.10
2023-11-12T06:29:02.801Z,6.13
2023-11-12T06:30:04.716Z,6.14
2023-11-12T06:31:06.338Z,6.17
2023-11-12T06:32:07.941Z,6.19
2023-11-12T06:33:09.631Z,6.18
2023-11-12T06:34:11.413Z,6.23
2023-11-12T06:35:13.069Z,6.25
2023-11-12T06:36:14.688Z,6.21
2023-11-12T06:37:16.280Z,6.16
2023-11-12T06:38:17.851Z,6.17
2023-11-12T06:39:19.558Z,6.17
2023-11-12T06:40:21.143Z,6.23
2023-11-12T06:41:22.741Z,6.23
2023-11-12T06:42:24.345Z,6.26
2023-11-12T06:43:25.908Z,6.29
2023-11-12T06:44:27.524Z,6.31
2023-11-12T06:45:29.192Z,6.36
2023-11-12T06:46:30.794Z,6.43
2023-11-12T06:47:32.459Z,6.45
2023-11-12T06:48:34.644Z,6.49
2023-11-12T06:49:36.325Z,6.47
2023-11-12T06:50:37.967Z,6.54
2023-11-12T06:51:39.618Z,6.51
2023-11-12T06:52:41.260Z,6.48
2023-11-12T06:53:42.829Z,6.50
2023-11-12T06:54:44.862Z,6.50
2023-11-12T06:55:46.439Z,6.45
2023-11-12T06:56:48.018Z,6.36
2023-11-12T06:57:49.703Z,6.31
2023-11-12T06:58:51.302Z,6.32
2023-11-12T06:59:52.866Z,6.38
2023-11-12T07:00:54.530Z,6.43
2023-11-12T07:01:56.130Z,6.45
2023-11-12T07:02:57.802Z,6.41
2023-11-12T07:03:59.488Z,6.45
2023-11-12T07:05:01.106Z,6.49
2023-11-12T07:06:02.732Z,6.45
2023-11-12T07:07:09.901Z,6.50
2023-11-12T07:08:17.828Z,6.50
2023-11-12T07:09:19.547Z,6.50
2023-11-12T07:10:21.155Z,6.49
2023-11-12T07:11:22.834Z,6.51
2023-11-12T07:12:24.563Z,6.51
2023-11-12T07:13:26.188Z,6.51
2023-11-12T07:14:27.783Z,6.50
2023-11-12T07:15:29.371Z,6.52
2023-11-12T07:16:31.051Z,6.50
2023-11-12T07:17:35.326Z,6.48
2023-11-12T07:18:45.608Z,6.38
2023-11-12T07:19:53.773Z,6.38
2023-11-12T07:20:55.333Z,6.43
2023-11-12T07:21:56.912Z,6.38
2023-11-12T07:22:58.500Z,6.31
2023-11-12T07:24:00.169Z,6.28
2023-11-12T07:25:01.900Z,6.29
2023-11-12T07:26:03.629Z,6.24
2023-11-12T07:27:05.379Z,6.22
2023-11-12T07:28:07.006Z,6.24
2023-11-12T07:29:08.613Z,6.30
2023-11-12T07:30:10.663Z,6.32
2023-11-12T07:31:12.302Z,6.28
2023-11-12T07:32:13.890Z,6.24
2023-11-12T07:33:15.585Z,6.29
2023-11-12T07:34:17.167Z,6.31
2023-11-12T07:35:18.759Z,6.35
2023-11-12T07:36:20.680Z,6.39
2023-11-12T07:37:22.247Z,6.41
2023-11-12T07:38:23.841Z,6.44
2023-11-12T07:39:25.460Z,6.47
2023-11-12T07:40:27.054Z,6.45
2023-11-12T07:41:35.390Z,6.41
2023-11-12T07:42:40.448Z,6.43
2023-11-12T07:43:42.059Z,6.48
2023-11-12T07:44:43.663Z,6.46
2023-11-12T07:45:45.353Z,6.46
2023-11-12T07:46:47.046Z,6.47
2023-11-12T07:47:48.711Z,6.49
2023-11-12T07:48:50.325Z,6.49
2023-11-12T07:49:51.913Z,6.44
2023-11-12T07:50:53.501Z,6.37
2023-11-12T07:51:55.096Z,6.39
2023-11-12T07:52:56.764Z,6.42
2023-11-12T07:53:58.319Z,6.44
2023-11-12T07:54:59.983Z,6.48
2023-11-12T07:56:01.592Z,6.40
2023-11-12T07:57:03.376Z,6.37
2023-11-12T07:58:05.031Z,6.47
2023-11-12T07:59:06.587Z,6.49
2023-11-12T08:00:08.761Z,6.57
2023-11-12T08:01:13.217Z,6.62
2023-11-12T08:02:14.885Z,6.60
2023-11-12T08:03:16.536Z,6.61
2023-11-12T08:04:18.186Z,6.57
2023-11-12T08:05:19.834Z,6.58
2023-11-12T08:06:21.473Z,6.64
2023-11-12T08:07:23.595Z,6.70
2023-11-12T08:08:25.516Z,6.77
2023-11-12T08:09:27.104Z,6.77
2023-11-12T08:10:28.710Z,6.79
2023-11-12T08:11:30.270Z,6.80
2023-11-12T08:12:32.392Z,6.78
2023-11-12T08:13:33.995Z,6.81
2023-11-12T08:14:38.407Z,6.89
2023-11-12T08:15:40.060Z,6.89
2023-11-12T08:16:41.711Z,6.88
2023-11-12T08:17:43.378Z,6.84
2023-11-12T08:18:45.095Z,6.85
2023-11-12T08:19:46.702Z,6.87
2023-11-12T08:20:48.318Z,6.90
2023-11-12T08:21:49.963Z,6.98
2023-11-12T08:22:51.581Z,6.97
2023-11-12T08:23:53.163Z,6.97
2023-11-12T08:24:54.767Z,6.96
2023-11-12T08:25:57.969Z,6.96
2023-11-12T08:27:00.811Z,6.97
2023-11-12T08:28:02.397Z,7.02
2023-11-12T08:29:04.183Z,7.01
2023-11-12T08:30:06.841Z,7.01
2023-11-12T08:31:08.387Z,7.03
2023-11-12T08:32:10.018Z,7.03
2023-11-12T08:33:11.758Z,7.00
2023-11-12T08:34:13.347Z,6.99
2023-11-12T08:35:14.971Z,6.97
2023-11-12T08:36:16.597Z,6.95
2023-11-12T08:37:18.728Z,6.99
2023-11-12T08:38:20.449Z,6.99
2023-11-12T08:39:22.099Z,6.98
2023-11-12T08:40:23.752Z,7.01
2023-11-12T08:41:25.366Z,7.05
2023-11-12T08:42:26.939Z,7.00
2023-11-12T08:43:28.542Z,6.99
2023-11-12T08:44:30.129Z,7.02
2023-11-12T08:45:31.771Z,7.03
2023-11-12T08:46:33.418Z,7.05
2023-11-12T08:47:35.058Z,7.08
2023-11-12T08:48:36.723Z,7.13
2023-11-12T08:49:38.304Z,7.17
2023-11-12T08:50:39.891Z,7.15
2023-11-12T08:51:42.885Z,7.12
2023-11-12T08:52:44.574Z,7.10
2023-11-12T08:53:46.172Z,7.15
2023-11-12T08:54:47.770Z,7.22
2023-11-12T08:55:49.537Z,7.21
2023-11-12T08:56:51.211Z,7.18
2023-11-12T08:57:52.892Z,7.20
2023-11-12T08:58:54.497Z,7.20
2023-11-12T08:59:56.069Z,7.21
2023-11-12T09:00:57.674Z,7.21
2023-11-12T09:01:59.291Z,7.16
2023-11-12T09:03:00.919Z,7.09
2023-11-12T09:04:02.659Z,7.06
2023-11-12T09:05:04.741Z,7.10
2023-11-12T09:06:06.791Z,7.15
2023-11-12T09:07:08.480Z,7.16
2023-11-12T09:08:10.068Z,7.22
2023-11-12T09:09:11.621Z,7.21
2023-11-12T09:10:13.324Z,7.22
2023-11-12T09:11:15.269Z,7.20
2023-11-12T09:12:16.986Z,7.16
2023-11-12T09:13:18.593Z,7.23
2023-11-12T09:14:20.184Z,7.30
2023-11-12T09:15:21.830Z,7.31
2023-11-12T09:16:23.470Z,7.33
2023-11-12T09:17:25.134Z,7.32
2023-11-12T09:18:28.508Z,7.35
2023-11-12T09:19:30.333Z,7.35
2023-11-12T09:20:31.954Z,7.32
2023-11-12T09:21:33.606Z,7.32
2023-11-12T09:22:35.170Z,7.37
2023-11-12T09:23:36.774Z,7.40
2023-11-12T09:24:47.983Z,7.43
2023-11-12T09:25:56.485Z,7.49
2023-11-12T09:26:58.095Z,7.47
2023-11-12T09:27:59.762Z,7.52
2023-11-12T09:29:01.435Z,7.50
2023-11-12T09:30:03.174Z,7.48
2023-11-12T09:31:04.840Z,7.52
2023-11-12T09:32:06.770Z,7.60
2023-11-12T09:33:08.616Z,7.63
2023-11-12T09:34:10.348Z,7.67
2023-11-12T09:35:11.995Z,7.73
2023-11-12T09:36:16.756Z,7.71
2023-11-12T09:37:18.403Z,7.81
2023-11-12T09:38:19.983Z,7.87
2023-11-12T09:39:21.616Z,7.91
2023-11-12T09:40:23.628Z,7.93
2023-11-12T09:41:25.475Z,8.02
2023-11-12T09:42:29.045Z,8.02
2023-11-12T09:43:31.365Z,8.00
2023-11-12T09:44:38.139Z,7.98
2023-11-12T09:45:43.560Z,7.95
2023-11-12T09:46:49.264Z,8.00
2023-11-12T09:47:53.619Z,8.13
2023-11-12T09:48:56.004Z,8.22
2023-11-12T09:49:58.067Z,8.26
2023-11-12T09:51:00.252Z,8.34
2023-11-12T09:52:02.108Z,8.39
2023-11-12T09:53:04.037Z,8.44
2023-11-12T09:54:06.517Z,8.50
2023-11-12T09:55:09.666Z,8.58
2023-11-12T09:56:11.488Z,8.63
2023-11-12T09:57:13.100Z,8.67
2023-11-12T09:58:14.683Z,8.72
2023-11-12T09:59:16.312Z,8.76
2023-11-12T10:00:18.648Z,8.85
2023-11-12T10:01:20.408Z,8.88
2023-11-12T10:02:24.074Z,8.85
2023-11-12T10:03:25.741Z,8.68
2023-11-12T10:04:27.403Z,8.71
2023-11-12T10:05:32.318Z,8.70
2023-11-12T10:06:34.445Z,8.77
2023-11-12T10:07:36.418Z,8.76
2023-11-12T10:08:38.088Z,8.80
2023-11-12T10:09:39.710Z,8.84
2023-11-12T10:10:41.452Z,8.91
2023-11-12T10:11:43.073Z,8.94
2023-11-12T10:12:47.636Z,8.96
2023-11-12T10:13:50.663Z,8.98
2023-11-12T10:15:01.405Z,9.00
2023-11-12T10:16:03.214Z,9.03
2023-11-12T10:17:08.925Z,9.14
2023-11-12T10:18:10.572Z,9.22
2023-11-12T10:19:14.142Z,9.23
2023-11-12T10:20:26.729Z,9.20
2023-11-12T10:21:28.445Z,9.16
2023-11-12T10:22:39.652Z,9.16
2023-11-12T10:23:41.226Z,9.21
2023-11-12T10:24:44.099Z,9.25
2023-11-12T10:25:46.114Z,9.25
2023-11-12T10:26:47.772Z,9.23
2023-11-12T10:27:55.506Z,9.23
2023-11-12T10:28:57.142Z,9.17
2023-11-12T10:30:17.156Z,9.12
2023-11-12T10:31:36.758Z,9.16
2023-11-12T10:32:38.394Z,9.16
2023-11-12T10:33:40.362Z,9.18
2023-11-12T10:34:49.156Z,9.26
2023-11-12T10:35:51.234Z,9.42
2023-11-12T10:37:07.406Z,9.47
2023-11-12T10:38:09.012Z,9.50
2023-11-12T10:39:12.368Z,9.48
2023-11-12T10:40:14.415Z,9.56
2023-11-12T10:41:16.142Z,9.56
2023-11-12T10:42:23.645Z,9.69
2023-11-12T10:43:26.059Z,9.75
2023-11-12T10:44:28.000Z,9.89
2023-11-12T10:45:30.821Z,9.97
2023-11-12T10:46:37.673Z,10.08
2023-11-12T10:47:39.552Z,10.22
2023-11-12T10:48:43.693Z,10.36
2023-11-12T10:49:45.968Z,10.42
2023-11-12T10:50:47.854Z,10.36
2023-11-12T10:51:50.582Z,10.25
2023-11-12T10:52:56.960Z,10.26
2023-11-12T10:54:00.829Z,10.33
2023-11-12T10:55:06.551Z,10.40
2023-11-12T10:56:08.176Z,10.49
2023-11-12T10:57:12.535Z,10.51
2023-11-12T10:58:14.644Z,10.54
2023-11-12T10:59:16.356Z,10.47
2023-11-12T11:00:18.305Z,10.48
2023-11-12T11:01:20.750Z,10.34
2023-11-12T11:02:22.448Z,10.26
2023-11-12T11:03:27.057Z,10.19
2023-11-12T11:04:30.008Z,10.11
2023-11-12T11:05:32.954Z,10.07
2023-11-12T11:06:36.433Z,10.13
2023-11-12T11:07:38.286Z,10.18
2023-11-12T11:08:39.866Z,10.10
2023-11-12T11:09:42.698Z,9.99
2023-11-12T11:10:44.368Z,9.99
2023-11-12T11:11:51.460Z,9.98
2023-11-12T11:12:53.425Z,9.95
2023-11-12T11:13:55.114Z,10.10
2023-11-12T11:14:56.682Z,10.14
2023-11-12T11:15:58.494Z,10.15
2023-11-12T11:17:00.117Z,10.20
2023-11-12T11:18:01.940Z,10.30
2023-11-12T11:19:03.559Z,10.40
2023-11-12T11:20:06.225Z,10.41
2023-11-12T11:21:07.776Z,10.44
2023-11-12T11:22:29.293Z,10.40
2023-11-12T11:23:53.688Z,10.48
2023-11-12T11:24:59.078Z,10.49
2023-11-12T11:26:25.427Z,10.38
2023-11-12T11:27:27.553Z,10.30
2023-11-12T11:28:29.184Z,10.29
2023-11-12T11:29:30.869Z,10.18
2023-11-12T11:30:32.727Z,10.18
2023-11-12T11:31:46.276Z,10.30
2023-11-12T11:32:53.926Z,10.35
2023-11-12T11:33:55.812Z,10.38
2023-11-12T11:34:57.511Z,10.40
2023-11-12T11:36:09.017Z,10.50
2023-11-12T11:37:10.998Z,10.56
2023-11-12T11:38:14.015Z,10.62
2023-11-12T11:39:28.138Z,10.64
2023-11-12T11:40:30.927Z,10.65
2023-11-12T11:41:51.405Z,10.60
2023-11-12T11:43:25.128Z,10.53
2023-11-12T11:44:32.454Z,10.58
2023-11-12T11:46:06.299Z,10.63
2023-11-12T11:47:24.371Z,10.62
2023-11-12T11:48:26.272Z,10.64
2023-11-12T11:49:27.882Z,10.67
2023-11-12T11:50:45.713Z,10.68
2023-11-12T11:51:49.050Z,10.79
2023-11-12T11:52:50.779Z,10.80
2023-11-12T11:53:52.348Z,10.75
2023-11-12T11:55:04.750Z,10.69
2023-11-12T11:56:16.445Z,10.54
2023-11-12T11:57:19.863Z,10.60
2023-11-12T11:58:21.674Z,10.56
2023-11-12T11:59:24.448Z,10.59
2023-11-12T12:00:26.080Z,10.61
2023-11-12T12:01:27.738Z,10.65
2023-11-12T12:02:29.460Z,10.60
2023-11-12T12:03:31.114Z,10.61
2023-11-12T12:04:33.302Z,10.52
2023-11-12T12:05:34.915Z,10.53
2023-11-12T12:06:42.424Z,10.56
2023-11-12T12:07:44.051Z,10.55
2023-11-12T12:08:53.142Z,10.45
2023-11-12T12:09:59.577Z,10.36
2023-11-12T12:11:15.923Z,10.32
2023-11-12T12:12:17.813Z,10.28
2023-11-12T12:13:19.971Z,10.15
2023-11-12T12:14:22.687Z,10.10
2023-11-12T12:15:24.406Z,10.17
2023-11-12T12:16:32.786Z,10.11
2023-11-12T12:17:39.164Z,10.10
2023-11-12T12:18:42.506Z,10.02
2023-11-12T12:19:44.641Z,9.95
2023-11-12T12:20:46.289Z,9.92
2023-11-12T12:21:50.696Z,9.91
2023-11-12T12:22:53.599Z,9.84
2023-11-12T12:23:55.788Z,9.85
2023-11-12T12:24:57.711Z,9.87
2023-11-12T12:25:59.402Z,9.87
2023-11-12T12:27:06.224Z,9.84
2023-11-12T12:28:09.370Z,9.79
2023-11-12T12:29:17.304Z,9.76
2023-11-12T12:30:19.057Z,9.75
2023-11-12T12:31:21.100Z,9.82
2023-11-12T12:32:24.042Z,9.82
2023-11-12T12:33:25.735Z,9.76
2023-11-12T12:34:27.369Z,9.69
2023-11-12T12:35:28.944Z,9.69
2023-11-12T12:36:30.992Z,9.72
2023-11-12T12:37:32.764Z,9.73
2023-11-12T12:38:34.418Z,9.78
2023-11-12T12:39:57.771Z,9.79
2023-11-12T12:41:02.470Z,9.69
2023-11-12T12:42:04.275Z,9.69
2023-11-12T12:43:05.895Z,9.73
2023-11-12T12:44:19.798Z,9.73
2023-11-12T12:45:21.521Z,9.78
2023-11-12T12:46:25.014Z,9.77
2023-11-12T12:47:38.352Z,9.68
2023-11-12T12:48:53.641Z,9.65
2023-11-12T12:49:55.229Z,9.64
2023-11-12T12:50:59.846Z,9.62
2023-11-12T12:52:03.173Z,9.60
2023-11-12T12:53:16.434Z,9.61
2023-11-12T12:54:18.171Z,9.61
2023-11-12T12:55:21.666Z,9.50
2023-11-12T12:56:23.236Z,9.42
2023-11-12T12:57:24.884Z,9.42
2023-11-12T12:58:39.262Z,9.40
2023-11-12T12:59:40.944Z,9.39
2023-11-12T13:00:43.310Z,9.39
2023-11-12T13:01:44.936Z,9.34
2023-11-12T13:02:46.706Z,9.39
2023-11-12T13:03:48.386Z,9.34
2023-11-12T13:04:52.420Z,9.42
2023-11-12T13:05:54.790Z,9.48
2023-11-12T13:06:56.469Z,9.54
2023-11-12T13:07:58.074Z,9.62
2023-11-12T13:08:59.764Z,9.67
2023-11-12T13:10:02.506Z,9.70
2023-11-12T13:11:04.259Z,9.74
2023-11-12T13:12:06.372Z,9.77
2023-11-12T13:13:08.046Z,9.82
2023-11-12T13:14:11.676Z,9.90
2023-11-12T13:15:15.596Z,9.90
2023-11-12T13:16:39.540Z,9.94
2023-11-12T13:17:41.172Z,10.00
2023-11-12T13:18:42.808Z,9.99
2023-11-12T13:19:44.453Z,9.99
2023-11-12T13:20:46.840Z,9.96
2023-11-12T13:21:56.712Z,9.98
2023-11-12T13:23:03.748Z,10.00
2023-11-12T13:24:05.876Z,9.96
2023-11-12T13:25:08.000Z,9.97
2023-11-12T13:26:09.591Z,9.99
2023-11-12T13:27:11.160Z,10.01
2023-11-12T13:28:12.825Z,9.93
2023-11-12T13:29:14.522Z,9.89
2023-11-12T13:30:16.418Z,9.89
2023-11-12T13:31:18.079Z,9.85
2023-11-12T13:32:19.724Z,9.83
2023-11-12T13:33:21.330Z,9.78
2023-11-12T13:34:23.336Z,9.74
2023-11-12T13:35:24.944Z,9.68
2023-11-12T13:36:26.558Z,9.61
2023-11-12T13:37:28.145Z,9.61
2023-11-12T13:38:32.215Z,9.57
2023-11-12T13:39:35.182Z,9.58
2023-11-12T13:40:37.810Z,9.55
2023-11-12T13:41:39.405Z,9.60
2023-11-12T13:42:42.420Z,9.54
2023-11-12T13:43:44.045Z,9.58
2023-11-12T13:44:46.184Z,9.58
2023-11-12T13:45:48.037Z,9.56
2023-11-12T13:46:49.742Z,9.55
2023-11-12T13:47:51.415Z,9.49
2023-11-12T13:48:56.816Z,9.47
2023-11-12T13:49:59.757Z,9.54
2023-11-12T13:51:01.327Z,9.56
2023-11-12T13:52:03.040Z,9.50
2023-11-12T13:53:04.634Z,9.46